createdAt,value
2023-03-07T00:01:22.397Z,0.80
2023-03-07T00:08:42.750Z,0.70
2023-03-07T00:12:24.655Z,0.70
2023-03-07T00:32:07.205Z,0.66
2023-03-07T00:35:24.212Z,0.42
2023-03-07T00:42:22.413Z,0.34
2023-03-07T00:45:45.853Z,0.31
2023-03-07T00:49:05.368Z,0.27
2023-03-07T00:59:18.922Z,0.18
2023-03-07T01:02:52.560Z,0.10
2023-03-07T01:06:31.705Z,0.07
2023-03-07T01:10:21.491Z,0.05
2023-03-07T01:13:50.761Z,0.03
2023-03-07T01:17:40.859Z,0.00
2023-03-07T01:24:16.390Z,-0.06
2023-03-07T01:31:19.217Z,-0.18
2023-03-07T01:35:00.092Z,-0.21
2023-03-07T01:38:27.936Z,-0.26
2023-03-07T01:42:01.245Z,-0.33
2023-03-07T01:49:44.529Z,-0.26
2023-03-07T02:00:44.982Z,-0.41
2023-03-07T02:04:15.303Z,-0.47
2023-03-07T02:08:01.734Z,-0.43
2023-03-07T02:11:28.570Z,-0.42
2023-03-07T02:14:51.744Z,-0.45
2023-03-07T02:18:44.595Z,-0.43
2023-03-07T02:22:23.208Z,-0.38
2023-03-07T02:26:10.570Z,-0.36
2023-03-07T02:29:28.789Z,-0.35
2023-03-07T02:33:09.827Z,-0.34
2023-03-07T02:43:22.042Z,-0.28
2023-03-07T02:46:55.346Z,-0.28
2023-03-07T02:53:42.417Z,-0.32
2023-03-07T02:57:04.317Z,-0.37
2023-03-07T03:03:54.201Z,-0.38
2023-03-07T03:07:15.137Z,-0.45
2023-03-07T03:11:06.219Z,-0.48
2023-03-07T03:15:02.604Z,-0.56
2023-03-07T03:18:26.841Z,-0.61
2023-03-07T03:22:03.697Z,-0.64
2023-03-07T03:29:22.988Z,-0.68
2023-03-07T03:33:01.222Z,-0.70
2023-03-07T03:36:45.777Z,-0.74
2023-03-07T03:40:18.536Z,-0.76
2023-03-07T03:43:35.373Z,-0.78
2023-03-07T03:47:06.736Z,-0.80
2023-03-07T03:50:21.001Z,-0.81
2023-03-07T04:01:15.987Z,-0.71
2023-03-07T04:04:49.531Z,-0.76
2023-03-07T04:08:07.775Z,-0.77
2023-03-07T04:11:38.920Z,-0.73
2023-03-07T04:18:52.742Z,-0.57
2023-03-07T04:25:50.254Z,-0.52
2023-03-07T04:29:52.978Z,-0.46
2023-03-07T04:34:10.584Z,-0.41
2023-03-07T04:37:49.455Z,-0.33
2023-03-07T04:41:57.157Z,-0.26
2023-03-07T04:45:44.252Z,-0.20
2023-03-07T04:49:12.075Z,-0.16
2023-03-07T04:52:45.367Z,-0.10
2023-03-07T04:56:11.399Z,-0.02
2023-03-07T04:59:44.831Z,0.04
2023-03-07T05:03:36.976Z,0.10
2023-03-07T05:10:55.050Z,0.37
2023-03-07T05:14:41.222Z,0.39
2023-03-07T05:18:33.515Z,0.48
2023-03-07T05:29:00.724Z,0.73
2023-03-07T05:32:32.325Z,0.84
2023-03-07T05:35:59.612Z,0.94
2023-03-07T06:18:10.994Z,2.37
2023-03-07T06:47:12.097Z,2.96
2023-03-07T07:19:56.787Z,3.84
2023-03-07T08:09:17.220Z,5.86
2023-03-07T09:06:21.044Z,7.97
2023-03-07T09:10:01.154Z,7.93
2023-03-07T09:13:52.469Z,7.91
2023-03-07T09:32:49.475Z,8.18
2023-03-07T09:36:12.410Z,8.06
2023-03-07T09:39:53.694Z,8.25
2023-03-07T09:50:34.518Z,8.38
2023-03-07T10:10:02.408Z,9.00
2023-03-07T11:10:22.405Z,10.39
2023-03-07T11:13:59.157Z,10.43
2023-03-07T11:17:34.616Z,10.28
2023-03-07T12:24:57.342Z,8.68
2023-03-07T12:32:15.966Z,8.85
2023-03-07T12:57:58.413Z,8.87
2023-03-07T13:01:28.989Z,8.80
2023-03-07T13:08:43.650Z,8.76
2023-03-07T13:12:00.351Z,8.68
2023-03-07T13:15:35.022Z,8.58
2023-03-07T13:18:45.184Z,8.50
2023-03-07T13:21:58.590Z,8.49
2023-03-07T13:25:14.867Z,8.47
2023-03-07T13:29:00.079Z,8.40
2023-03-07T13:32:13.548Z,8.35
2023-03-07T13:35:23.013Z,8.29
2023-03-07T13:46:09.187Z,8.28
2023-03-07T13:50:07.958Z,8.19
2023-03-07T13:53:58.427Z,8.03
2023-03-07T13:57:31.132Z,7.85
2023-03-07T14:11:50.110Z,7.45
2023-03-07T14:15:27.892Z,7.39
2023-03-07T14:19:29.693Z,7.33
2023-03-07T14:23:12.925Z,7.20
2023-03-07T14:26:58.014Z,7.07
2023-03-07T14:30:26.900Z,6.98
2023-03-07T14:34:28.887Z,6.87
2023-03-07T14:41:38.256Z,6.77
2023-03-07T15:11:49.200Z,6.11
2023-03-07T15:15:25.468Z,6.11
2023-03-07T15:18:57.342Z,6.13
2023-03-07T15:25:47.299Z,6.14
2023-03-07T15:32:59.189Z,6.13
2023-03-07T15:37:03.712Z,6.08
2023-03-07T15:40:45.735Z,6.07
2023-03-07T15:44:28.360Z,6.09
2023-03-07T15:48:29.216Z,6.08
2023-03-07T15:51:57.694Z,6.07
2023-03-07T15:55:21.985Z,6.05
2023-03-07T16:02:22.456Z,6.03
2023-03-07T16:09:44.411Z,5.98
2023-03-07T16:13:20.705Z,5.98
2023-03-07T16:16:47.118Z,5.99
2023-03-07T16:20:15.725Z,5.98
2023-03-07T16:24:07.580Z,5.97
2023-03-07T16:31:12.943Z,5.94
2023-03-07T16:34:41.988Z,5.93
2023-03-07T16:38:31.506Z,5.92
2023-03-07T16:42:10.232Z,5.89
2023-03-07T16:45:44.547Z,5.90
2023-03-07T16:49:48.831Z,5.89
2023-03-07T16:53:12.952Z,5.90
2023-03-07T16:56:49.118Z,5.92
2023-03-07T17:00:47.615Z,5.94
2023-03-07T17:04:08.954Z,5.98
2023-03-07T17:11:21.084Z,6.02
2023-03-07T17:14:43.319Z,6.05
2023-03-07T17:21:46.552Z,6.05
2023-03-07T17:25:25.503Z,6.02
2023-03-07T17:29:15.472Z,5.99
2023-03-07T17:33:01.496Z,6.01
2023-03-07T17:37:00.711Z,6.01
2023-03-07T17:40:20.485Z,6.02
2023-03-07T17:43:57.758Z,6.04
2023-03-07T17:59:14.450Z,6.01
2023-03-07T18:02:36.839Z,5.95
2023-03-07T18:06:16.574Z,5.92
2023-03-07T18:10:08.200Z,5.91
2023-03-07T18:13:42.594Z,5.92
2023-03-07T18:25:07.384Z,5.92
2023-03-07T18:32:43.650Z,5.94
2023-03-07T18:50:27.633Z,5.80
2023-03-07T18:53:57.144Z,5.73
2023-03-07T18:57:11.573Z,5.71
2023-03-07T19:00:45.547Z,5.65
2023-03-07T19:04:38.785Z,5.60
2023-03-07T19:11:53.936Z,5.46
2023-03-07T19:15:26.336Z,5.41
2023-03-07T19:32:50.187Z,4.91
2023-03-07T19:36:14.748Z,4.77
2023-03-07T19:39:51.775Z,4.69
2023-03-07T19:43:05.268Z,4.60
2023-03-07T19:46:58.845Z,4.54
2023-03-07T19:50:26.729Z,4.45
2023-03-07T19:53:56.971Z,4.32
2023-03-07T19:57:28.302Z,4.26
2023-03-07T20:01:24.965Z,4.20
2023-03-07T20:05:09.210Z,4.09
2023-03-07T20:08:52.102Z,3.97
2023-03-07T20:12:17.356Z,3.91
2023-03-07T20:19:41.063Z,3.81
2023-03-07T20:23:10.262Z,3.83
2023-03-07T20:26:37.471Z,3.76
2023-03-07T20:34:00.212Z,3.59
2023-03-07T20:41:45.170Z,3.44
2023-03-07T20:45:35.775Z,3.32
2023-03-07T20:52:58.661Z,3.06
2023-03-07T20:56:37.136Z,2.96
2023-03-07T21:00:14.602Z,2.91
2023-03-07T21:03:50.350Z,2.91
2023-03-07T21:07:11.188Z,2.91
2023-03-07T21:10:44.305Z,2.89
2023-03-07T21:21:15.929Z,2.69
2023-03-07T21:24:41.859Z,2.56
2023-03-07T21:28:01.182Z,2.45
2023-03-07T21:31:45.505Z,2.43
2023-03-07T21:35:03.306Z,2.42
2023-03-07T21:42:11.965Z,2.44
2023-03-07T21:45:32.590Z,2.44
2023-03-07T21:48:58.086Z,2.43
2023-03-07T21:52:31.891Z,2.40
2023-03-07T21:56:09.946Z,2.34
2023-03-07T21:59:58.674Z,2.31
2023-03-07T22:03:38.460Z,2.29
2023-03-07T22:07:21.552Z,2.30
2023-03-07T22:10:55.159Z,2.32
2023-03-07T22:14:14.852Z,2.33
2023-03-07T22:17:31.756Z,2.33
2023-03-07T22:21:10.386Z,2.34
2023-03-07T22:24:45.945Z,2.34
2023-03-07T22:28:18.220Z,2.31
2023-03-07T22:31:49.702Z,2.27
2023-03-07T22:35:20.740Z,2.25
2023-03-07T22:38:42.674Z,2.22
2023-03-07T22:42:02.759Z,2.21
2023-03-07T22:45:24.925Z,2.16
2023-03-07T22:48:49.872Z,2.13
2023-03-07T22:52:02.419Z,2.15
2023-03-07T22:55:43.090Z,2.16
2023-03-07T22:59:31.147Z,2.18
2023-03-07T23:02:49.295Z,2.14
2023-03-07T23:06:12.108Z,2.12
2023-03-07T23:09:34.696Z,2.08
2023-03-07T23:12:46.395Z,2.04
2023-03-07T23:16:14.638Z,2.00
2023-03-07T23:19:39.793Z,1.97
2023-03-07T23:22:55.577Z,1.94
2023-03-07T23:26:16.307Z,1.91
2023-03-07T23:29:33.578Z,1.92
2023-03-07T23:32:44.828Z,1.92
2023-03-07T23:36:01.633Z,1.89
2023-03-07T23:39:18.284Z,1.83
2023-03-07T23:42:30.521Z,1.80
2023-03-07T23:45:41.202Z,1.79
2023-03-07T23:48:50.101Z,1.79
2023-03-07T23:52:22.603Z,1.76
2023-03-07T23:55:39.018Z,1.76
2023-03-07T23:59:27.916Z,1.72
